sensor_id;sensor_type;location;lat;lon;timestamp;temperature;humidity
26035;DHT22;13809;48.632;11.576;2023-04-01T00:02:15;12.80;35.90
26035;DHT22;13809;48.632;11.576;2023-04-01T00:07:18;12.70;35.80
26035;DHT22;13809;48.632;11.576;2023-04-01T00:12:22;12.70;35.90
26035;DHT22;13809;48.632;11.576;2023-04-01T00:17:27;12.70;35.90
26035;DHT22;13809;48.632;11.576;2023-04-01T00:22:30;12.60;35.90
26035;DHT22;13809;48.632;11.576;2023-04-01T00:27:35;12.60;36.00
26035;DHT22;13809;48.632;11.576;2023-04-01T00:32:38;12.50;36.10
26035;DHT22;13809;48.632;11.576;2023-04-01T00:37:41;12.50;36.10
26035;DHT22;13809;48.632;11.576;2023-04-01T00:42:46;12.50;36.10
26035;DHT22;13809;48.632;11.576;2023-04-01T00:47:49;12.50;36.20
26035;DHT22;13809;48.632;11.576;2023-04-01T00:52:52;12.40;36.30
26035;DHT22;13809;48.632;11.576;2023-04-01T00:57:58;12.40;36.50
26035;DHT22;13809;48.632;11.576;2023-04-01T01:03:02;12.40;36.80
26035;DHT22;13809;48.632;11.576;2023-04-01T01:08:13;12.30;36.60
26035;DHT22;13809;48.632;11.576;2023-04-01T01:13:24;12.40;36.90
26035;DHT22;13809;48.632;11.576;2023-04-01T01:18:34;12.30;36.90
26035;DHT22;13809;48.632;11.576;2023-04-01T01:23:56;12.30;37.10
26035;DHT22;13809;48.632;11.576;2023-04-01T01:29:11;12.20;37.20
26035;DHT22;13809;48.632;11.576;2023-04-01T01:34:22;12.20;37.20
26035;DHT22;13809;48.632;11.576;2023-04-01T01:39:30;12.20;37.10
26035;DHT22;13809;48.632;11.576;2023-04-01T01:44:35;12.20;37.00
26035;DHT22;13809;48.632;11.576;2023-04-01T01:49:41;12.20;37.00
26035;DHT22;13809;48.632;11.576;2023-04-01T01:54:50;12.20;37.00
26035;DHT22;13809;48.632;11.576;2023-04-01T01:59:56;12.10;37.00
26035;DHT22;13809;48.632;11.576;2023-04-01T02:05:01;12.20;37.00
26035;DHT22;13809;48.632;11.576;2023-04-01T02:10:09;12.20;36.90
26035;DHT22;13809;48.632;11.576;2023-04-01T02:15:14;12.10;37.10
26035;DHT22;13809;48.632;11.576;2023-04-01T02:20:20;12.00;37.10
26035;DHT22;13809;48.632;11.576;2023-04-01T02:25:28;12.00;37.00
26035;DHT22;13809;48.632;11.576;2023-04-01T02:30:34;12.00;37.00
26035;DHT22;13809;48.632;11.576;2023-04-01T02:35:38;12.10;37.00
26035;DHT22;13809;48.632;11.576;2023-04-01T02:40:45;12.10;36.90
26035;DHT22;13809;48.632;11.576;2023-04-01T02:45:49;12.00;37.20
26035;DHT22;13809;48.632;11.576;2023-04-01T02:50:52;12.00;37.00
26035;DHT22;13809;48.632;11.576;2023-04-01T02:55:56;12.00;37.00
26035;DHT22;13809;48.632;11.576;2023-04-01T03:00:59;11.90;37.30
26035;DHT22;13809;48.632;11.576;2023-04-01T03:06:05;11.90;37.30
26035;DHT22;13809;48.632;11.576;2023-04-01T03:11:10;11.90;37.50
26035;DHT22;13809;48.632;11.576;2023-04-01T03:16:14;11.90;37.40
26035;DHT22;13809;48.632;11.576;2023-04-01T03:21:18;11.90;37.30
26035;DHT22;13809;48.632;11.576;2023-04-01T03:26:23;11.90;37.30
26035;DHT22;13809;48.632;11.576;2023-04-01T03:31:28;11.90;37.30
26035;DHT22;13809;48.632;11.576;2023-04-01T03:36:31;11.90;37.30
26035;DHT22;13809;48.632;11.576;2023-04-01T03:41:37;11.90;37.30
26035;DHT22;13809;48.632;11.576;2023-04-01T03:46:40;11.90;37.30
26035;DHT22;13809;48.632;11.576;2023-04-01T03:51:44;11.90;37.20
26035;DHT22;13809;48.632;11.576;2023-04-01T03:56:49;11.90;37.00
26035;DHT22;13809;48.632;11.576;2023-04-01T04:01:52;11.90;37.20
26035;DHT22;13809;48.632;11.576;2023-04-01T04:06:56;11.80;37.10
26035;DHT22;13809;48.632;11.576;2023-04-01T04:12:00;11.80;37.10
26035;DHT22;13809;48.632;11.576;2023-04-01T04:17:03;11.70;37.20
26035;DHT22;13809;48.632;11.576;2023-04-01T04:22:07;11.70;37.20
26035;DHT22;13809;48.632;11.576;2023-04-01T04:27:12;11.60;37.20
26035;DHT22;13809;48.632;11.576;2023-04-01T04:32:15;11.60;37.30
26035;DHT22;13809;48.632;11.576;2023-04-01T04:37:18;11.60;37.20
26035;DHT22;13809;48.632;11.576;2023-04-01T04:42:23;11.60;37.10
26035;DHT22;13809;48.632;11.576;2023-04-01T04:47:26;11.50;37.20
26035;DHT22;13809;48.632;11.576;2023-04-01T04:52:29;11.50;37.10
26035;DHT22;13809;48.632;11.576;2023-04-01T04:57:34;11.40;37.20
26035;DHT22;13809;48.632;11.576;2023-04-01T05:02:37;11.40;37.30
26035;DHT22;13809;48.632;11.576;2023-04-01T05:07:40;11.40;37.20
26035;DHT22;13809;48.632;11.576;2023-04-01T05:12:45;11.40;37.30
26035;DHT22;13809;48.632;11.576;2023-04-01T05:17:48;11.40;37.40
26035;DHT22;13809;48.632;11.576;2023-04-01T05:22:55;11.40;37.30
26035;DHT22;13809;48.632;11.576;2023-04-01T05:28:00;11.40;37.70
26035;DHT22;13809;48.632;11.576;2023-04-01T05:33:03;11.40;37.80
26035;DHT22;13809;48.632;11.576;2023-04-01T05:38:06;11.40;37.90
26035;DHT22;13809;48.632;11.576;2023-04-01T05:43:11;11.40;38.00
26035;DHT22;13809;48.632;11.576;2023-04-01T05:48:14;11.40;38.00
26035;DHT22;13809;48.632;11.576;2023-04-01T05:53:18;11.50;38.00
26035;DHT22;13809;48.632;11.576;2023-04-01T05:58:22;11.50;38.00
26035;DHT22;13809;48.632;11.576;2023-04-01T06:03:25;11.60;38.30
26035;DHT22;13809;48.632;11.576;2023-04-01T06:08:31;11.60;38.20
26035;DHT22;13809;48.632;11.576;2023-04-01T06:13:56;11.60;38.30
26035;DHT22;13809;48.632;11.576;2023-04-01T06:19:20;11.70;38.40
26035;DHT22;13809;48.632;11.576;2023-04-01T06:24:45;11.80;38.30
26035;DHT22;13809;48.632;11.576;2023-04-01T06:30:02;11.80;38.40
26035;DHT22;13809;48.632;11.576;2023-04-01T06:35:19;11.90;38.40
26035;DHT22;13809;48.632;11.576;2023-04-01T06:41:06;11.90;38.10
26035;DHT22;13809;48.632;11.576;2023-04-01T06:46:20;12.00;38.20
26035;DHT22;13809;48.632;11.576;2023-04-01T06:51:30;12.00;38.30
26035;DHT22;13809;48.632;11.576;2023-04-01T06:56:38;12.10;38.20
26035;DHT22;13809;48.632;11.576;2023-04-01T07:01:47;12.20;38.20
26035;DHT22;13809;48.632;11.576;2023-04-01T07:06:54;12.20;38.10
26035;DHT22;13809;48.632;11.576;2023-04-01T07:12:01;12.30;38.10
26035;DHT22;13809;48.632;11.576;2023-04-01T07:17:11;12.30;37.90
26035;DHT22;13809;48.632;11.576;2023-04-01T07:22:22;12.30;37.80
26035;DHT22;13809;48.632;11.576;2023-04-01T07:27:26;12.40;37.90
26035;DHT22;13809;48.632;11.576;2023-04-01T07:32:37;12.50;38.10
26035;DHT22;13809;48.632;11.576;2023-04-01T07:37:52;12.60;37.80
26035;DHT22;13809;48.632;11.576;2023-04-01T07:43:15;12.60;37.70
26035;DHT22;13809;48.632;11.576;2023-04-01T07:48:27;12.70;37.80
26035;DHT22;13809;48.632;11.576;2023-04-01T07:53:38;12.90;37.80
26035;DHT22;13809;48.632;11.576;2023-04-01T07:58:55;13.00;37.90
26035;DHT22;13809;48.632;11.576;2023-04-01T08:09:40;13.30;37.20
26035;DHT22;13809;48.632;11.576;2023-04-01T08:14:56;13.50;37.00
26035;DHT22;13809;48.632;11.576;2023-04-01T08:20:14;13.70;37.20
26035;DHT22;13809;48.632;11.576;2023-04-01T08:25:21;13.90;36.40
26035;DHT22;13809;48.632;11.576;2023-04-01T08:30:30;14.00;35.80
26035;DHT22;13809;48.632;11.576;2023-04-01T08:35:41;14.00;35.80
26035;DHT22;13809;48.632;11.576;2023-04-01T08:41:20;14.00;35.30
26035;DHT22;13809;48.632;11.576;2023-04-01T08:52:17;14.00;35.50
26035;DHT22;13809;48.632;11.576;2023-04-01T08:57:36;13.90;35.20
26035;DHT22;13809;48.632;11.576;2023-04-01T09:02:51;13.90;35.30
26035;DHT22;13809;48.632;11.576;2023-04-01T09:08:08;13.90;35.00
26035;DHT22;13809;48.632;11.576;2023-04-01T09:13:25;13.90;35.10
26035;DHT22;13809;48.632;11.576;2023-04-01T09:24:31;14.10;35.00
26035;DHT22;13809;48.632;11.576;2023-04-01T09:35:37;14.00;34.40
26035;DHT22;13809;48.632;11.576;2023-04-01T09:40:48;14.00;34.50
26035;DHT22;13809;48.632;11.576;2023-04-01T09:46:09;14.00;34.70
26035;DHT22;13809;48.632;11.576;2023-04-01T09:51:26;14.10;34.70
26035;DHT22;13809;48.632;11.576;2023-04-01T09:57:07;14.10;34.40
26035;DHT22;13809;48.632;11.576;2023-04-01T10:02:44;14.20;34.80
26035;DHT22;13809;48.632;11.576;2023-04-01T10:30:51;14.40;34.80
26035;DHT22;13809;48.632;11.576;2023-04-01T10:42:19;14.40;34.80
26035;DHT22;13809;48.632;11.576;2023-04-01T10:47:48;14.40;35.30
26035;DHT22;13809;48.632;11.576;2023-04-01T10:53:40;14.40;35.60
26035;DHT22;13809;48.632;11.576;2023-04-01T10:59:21;14.40;35.70
26035;DHT22;13809;48.632;11.576;2023-04-01T11:05:02;14.40;35.90
26035;DHT22;13809;48.632;11.576;2023-04-01T11:11:02;14.30;35.90
26035;DHT22;13809;48.632;11.576;2023-04-01T11:22:00;14.10;36.80
26035;DHT22;13809;48.632;11.576;2023-04-01T11:27:24;14.00;36.50
26035;DHT22;13809;48.632;11.576;2023-04-01T11:37:57;13.60;36.50
26035;DHT22;13809;48.632;11.576;2023-04-01T11:43:09;13.50;37.30
26035;DHT22;13809;48.632;11.576;2023-04-01T11:48:51;13.30;37.50
26035;DHT22;13809;48.632;11.576;2023-04-01T11:54:03;13.20;37.40
26035;DHT22;13809;48.632;11.576;2023-04-01T12:04:58;13.10;37.80
26035;DHT22;13809;48.632;11.576;2023-04-01T12:10:17;13.00;38.10
26035;DHT22;13809;48.632;11.576;2023-04-01T12:15:27;12.90;38.20
26035;DHT22;13809;48.632;11.576;2023-04-01T12:20:48;12.90;38.60
26035;DHT22;13809;48.632;11.576;2023-04-01T12:31:36;12.60;38.60
26035;DHT22;13809;48.632;11.576;2023-04-01T12:36:51;12.50;39.30
26035;DHT22;13809;48.632;11.576;2023-04-01T12:42:04;12.50;39.60
26035;DHT22;13809;48.632;11.576;2023-04-01T12:47:21;12.50;39.90
26035;DHT22;13809;48.632;11.576;2023-04-01T12:52:38;12.50;39.50
26035;DHT22;13809;48.632;11.576;2023-04-01T13:03:33;12.70;39.50
26035;DHT22;13809;48.632;11.576;2023-04-01T13:08:44;12.70;39.00
26035;DHT22;13809;48.632;11.576;2023-04-01T13:14:16;12.80;39.50
26035;DHT22;13809;48.632;11.576;2023-04-01T13:19:38;12.90;39.00
26035;DHT22;13809;48.632;11.576;2023-04-01T13:25:00;12.90;39.30
26035;DHT22;13809;48.632;11.576;2023-04-01T13:30:22;13.00;39.20
26035;DHT22;13809;48.632;11.576;2023-04-01T13:35:36;13.00;39.10
26035;DHT22;13809;48.632;11.576;2023-04-01T13:40:48;13.00;39.00
26035;DHT22;13809;48.632;11.576;2023-04-01T13:46:28;13.10;39.20
26035;DHT22;13809;48.632;11.576;2023-04-01T13:57:24;13.00;39.60
26035;DHT22;13809;48.632;11.576;2023-04-01T14:02:51;13.00;40.00
26035;DHT22;13809;48.632;11.576;2023-04-01T14:08:07;13.00;39.90
26035;DHT22;13809;48.632;11.576;2023-04-01T14:13:17;13.00;40.50
26035;DHT22;13809;48.632;11.576;2023-04-01T14:18:50;13.10;40.20
26035;DHT22;13809;48.632;11.576;2023-04-01T14:24:30;13.10;39.90
26035;DHT22;13809;48.632;11.576;2023-04-01T14:29:37;13.10;40.40
26035;DHT22;13809;48.632;11.576;2023-04-01T14:34:54;13.10;40.30
26035;DHT22;13809;48.632;11.576;2023-04-01T14:40:20;13.10;40.40
26035;DHT22;13809;48.632;11.576;2023-04-01T14:51:09;13.30;40.10
26035;DHT22;13809;48.632;11.576;2023-04-01T14:56:40;13.40;39.80
26035;DHT22;13809;48.632;11.576;2023-04-01T15:01:47;13.40;39.60
26035;DHT22;13809;48.632;11.576;2023-04-01T15:07:07;13.50;39.60
26035;DHT22;13809;48.632;11.576;2023-04-01T15:12:21;13.50;39.30
26035;DHT22;13809;48.632;11.576;2023-04-01T15:17:45;13.60;39.40
26035;DHT22;13809;48.632;11.576;2023-04-01T15:23:01;13.60;39.20
26035;DHT22;13809;48.632;11.576;2023-04-01T15:28:10;13.60;39.00
26035;DHT22;13809;48.632;11.576;2023-04-01T15:33:42;13.70;39.10
26035;DHT22;13809;48.632;11.576;2023-04-01T15:38:51;13.70;39.20
26035;DHT22;13809;48.632;11.576;2023-04-01T15:43:56;13.60;39.10
26035;DHT22;13809;48.632;11.576;2023-04-01T15:49:05;13.60;38.90
26035;DHT22;13809;48.632;11.576;2023-04-01T15:54:25;13.50;39.20
26035;DHT22;13809;48.632;11.576;2023-04-01T16:00:02;13.50;39.60
26035;DHT22;13809;48.632;11.576;2023-04-01T16:05:19;13.40;39.40
26035;DHT22;13809;48.632;11.576;2023-04-01T16:10:44;13.40;39.40
26035;DHT22;13809;48.632;11.576;2023-04-01T16:16:00;13.30;39.50
26035;DHT22;13809;48.632;11.576;2023-04-01T16:21:08;13.30;40.10
26035;DHT22;13809;48.632;11.576;2023-04-01T16:26:20;13.30;39.60
26035;DHT22;13809;48.632;11.576;2023-04-01T16:31:33;13.30;39.70
26035;DHT22;13809;48.632;11.576;2023-04-01T16:36:43;13.30;39.70
26035;DHT22;13809;48.632;11.576;2023-04-01T16:41:52;13.40;39.50
26035;DHT22;13809;48.632;11.576;2023-04-01T16:46:59;13.40;39.20
26035;DHT22;13809;48.632;11.576;2023-04-01T16:52:16;13.40;39.20
26035;DHT22;13809;48.632;11.576;2023-04-01T16:57:25;13.40;39.40
26035;DHT22;13809;48.632;11.576;2023-04-01T17:02:34;13.50;39.10
26035;DHT22;13809;48.632;11.576;2023-04-01T17:07:46;13.50;38.90
26035;DHT22;13809;48.632;11.576;2023-04-01T17:13:13;13.50;38.90
26035;DHT22;13809;48.632;11.576;2023-04-01T17:18:23;13.50;38.80
26035;DHT22;13809;48.632;11.576;2023-04-01T17:23:33;13.50;38.80
26035;DHT22;13809;48.632;11.576;2023-04-01T17:28:46;13.50;38.80
26035;DHT22;13809;48.632;11.576;2023-04-01T17:34:16;13.50;38.90
26035;DHT22;13809;48.632;11.576;2023-04-01T17:39:42;13.50;38.90
26035;DHT22;13809;48.632;11.576;2023-04-01T17:44:55;13.50;39.20
26035;DHT22;13809;48.632;11.576;2023-04-01T17:50:09;13.40;38.90
26035;DHT22;13809;48.632;11.576;2023-04-01T17:55:36;13.40;39.10
26035;DHT22;13809;48.632;11.576;2023-04-01T18:00:56;13.40;39.00
26035;DHT22;13809;48.632;11.576;2023-04-01T18:06:04;13.30;39.20
26035;DHT22;13809;48.632;11.576;2023-04-01T18:11:16;13.20;39.20
26035;DHT22;13809;48.632;11.576;2023-04-01T18:16:43;13.20;39.40
26035;DHT22;13809;48.632;11.576;2023-04-01T18:21:51;13.10;39.50
26035;DHT22;13809;48.632;11.576;2023-04-01T18:27:03;13.10;39.20
26035;DHT22;13809;48.632;11.576;2023-04-01T18:32:25;13.10;39.30
26035;DHT22;13809;48.632;11.576;2023-04-01T18:37:34;13.10;39.10
26035;DHT22;13809;48.632;11.576;2023-04-01T18:42:45;13.10;39.40
26035;DHT22;13809;48.632;11.576;2023-04-01T18:47:58;13.10;39.30
26035;DHT22;13809;48.632;11.576;2023-04-01T18:53:13;13.10;39.40
26035;DHT22;13809;48.632;11.576;2023-04-01T18:58:32;13.10;39.40
26035;DHT22;13809;48.632;11.576;2023-04-01T19:03:43;13.10;39.30
26035;DHT22;13809;48.632;11.576;2023-04-01T19:08:51;13.10;39.30
26035;DHT22;13809;48.632;11.576;2023-04-01T19:14:03;13.10;39.20
26035;DHT22;13809;48.632;11.576;2023-04-01T19:24:50;13.00;39.40
26035;DHT22;13809;48.632;11.576;2023-04-01T19:30:12;13.00;39.50
26035;DHT22;13809;48.632;11.576;2023-04-01T19:35:26;13.00;39.50
26035;DHT22;13809;48.632;11.576;2023-04-01T19:40:41;13.10;39.50
26035;DHT22;13809;48.632;11.576;2023-04-01T19:45:52;13.10;39.30
26035;DHT22;13809;48.632;11.576;2023-04-01T19:51:03;13.10;39.20
26035;DHT22;13809;48.632;11.576;2023-04-01T19:56:15;13.20;39.20
26035;DHT22;13809;48.632;11.576;2023-04-01T20:01:24;13.10;39.20
26035;DHT22;13809;48.632;11.576;2023-04-01T20:06:51;13.10;39.10
26035;DHT22;13809;48.632;11.576;2023-04-01T20:12:04;13.10;39.30
26035;DHT22;13809;48.632;11.576;2023-04-01T20:17:18;13.10;40.10
26035;DHT22;13809;48.632;11.576;2023-04-01T20:22:59;13.10;39.20
26035;DHT22;13809;48.632;11.576;2023-04-01T20:28:09;13.10;39.10
26035;DHT22;13809;48.632;11.576;2023-04-01T20:33:26;13.10;39.10
26035;DHT22;13809;48.632;11.576;2023-04-01T20:39:08;13.10;39.00
26035;DHT22;13809;48.632;11.576;2023-04-01T20:44:21;13.10;39.00
26035;DHT22;13809;48.632;11.576;2023-04-01T20:49:40;13.10;39.00
26035;DHT22;13809;48.632;11.576;2023-04-01T20:54:58;13.00;40.00
26035;DHT22;13809;48.632;11.576;2023-04-01T21:00:18;13.00;39.50
26035;DHT22;13809;48.632;11.576;2023-04-01T21:05:38;13.00;39.30
26035;DHT22;13809;48.632;11.576;2023-04-01T21:10:56;13.00;39.10
26035;DHT22;13809;48.632;11.576;2023-04-01T21:16:11;12.90;38.90
26035;DHT22;13809;48.632;11.576;2023-04-01T21:21:30;12.90;39.10
26035;DHT22;13809;48.632;11.576;2023-04-01T21:26:47;12.80;39.00
26035;DHT22;13809;48.632;11.576;2023-04-01T21:32:03;12.80;38.90
26035;DHT22;13809;48.632;11.576;2023-04-01T21:37:32;12.80;38.90
26035;DHT22;13809;48.632;11.576;2023-04-01T21:42:44;12.80;39.10
26035;DHT22;13809;48.632;11.576;2023-04-01T21:48:22;12.80;39.00
26035;DHT22;13809;48.632;11.576;2023-04-01T21:53:48;12.80;39.00
26035;DHT22;13809;48.632;11.576;2023-04-01T21:59:27;12.80;39.10
26035;DHT22;13809;48.632;11.576;2023-04-01T22:04:44;12.80;39.10
26035;DHT22;13809;48.632;11.576;2023-04-01T22:09:59;12.70;38.90
26035;DHT22;13809;48.632;11.576;2023-04-01T22:15:13;12.70;39.00
26035;DHT22;13809;48.632;11.576;2023-04-01T22:20:25;12.70;39.00
26035;DHT22;13809;48.632;11.576;2023-04-01T22:25:34;12.60;38.90
26035;DHT22;13809;48.632;11.576;2023-04-01T22:30:45;12.60;39.10
26035;DHT22;13809;48.632;11.576;2023-04-01T22:35:54;12.50;39.00
26035;DHT22;13809;48.632;11.576;2023-04-01T22:41:05;12.50;39.10
26035;DHT22;13809;48.632;11.576;2023-04-01T22:46:28;12.50;39.20
26035;DHT22;13809;48.632;11.576;2023-04-01T22:51:41;12.50;39.30
26035;DHT22;13809;48.632;11.576;2023-04-01T22:56:50;12.50;39.30
26035;DHT22;13809;48.632;11.576;2023-04-01T23:01:59;12.40;39.10
26035;DHT22;13809;48.632;11.576;2023-04-01T23:07:19;12.40;39.20
26035;DHT22;13809;48.632;11.576;2023-04-01T23:12:27;12.40;39.00
26035;DHT22;13809;48.632;11.576;2023-04-01T23:17:47;12.40;39.20
26035;DHT22;13809;48.632;11.576;2023-04-01T23:23:03;12.30;39.40
26035;DHT22;13809;48.632;11.576;2023-04-01T23:33:54;12.30;39.40
26035;DHT22;13809;48.632;11.576;2023-04-01T23:39:03;12.30;39.40
26035;DHT22;13809;48.632;11.576;2023-04-01T23:44:10;12.30;39.40
26035;DHT22;13809;48.632;11.576;2023-04-01T23:49:19;12.40;39.20
26035;DHT22;13809;48.632;11.576;2023-04-01T23:54:29;12.40;39.30
26035;DHT22;13809;48.632;11.576;2023-04-01T23:59:36;12.40;39.30
